Find us on Google+

51 mph Gust at Airport

| 9:24 am December 20, 2012

Winds gusted to 51 mph at the Birmingham Airport as out line of intense showers passed at 9:15.

Here is the METAR report from the ASOS equipment:
KBHM 201519Z 27027G44KT 1/2SM +RA FG SQ SCT009 BKN014 OVC021 13/12 A2979 RMK AO2 PK WND 28044/1515 WSHFT 1505 RAB02 PRESRR


Category: Alabama's Weather, Severe Weather

Bill Murray

About Bill Murray: Bill Murray is the President of The Weather Factory. He is the site's official weather historian and a weekend forecaster. He also anchors the site's severe weather coverage. Bill Murray is the proud holder of National Weather Association Digital Seal #0001 @wxhistorian View author profile.

Comments are closed.